createdAt,value
2019-04-29T00:00:12.701Z,35.88
2019-04-29T00:02:43.663Z,35.40
2019-04-29T00:05:13.187Z,43.75
2019-04-29T00:07:42.512Z,49.75
2019-04-29T00:10:13.344Z,42.50
2019-04-29T00:12:42.820Z,44.13
2019-04-29T00:15:30.143Z,44.42
2019-04-29T00:18:01.155Z,44.20
2019-04-29T00:20:32.071Z,34.20
2019-04-29T00:23:01.518Z,31.05
2019-04-29T00:25:30.789Z,38.98
2019-04-29T00:28:00.154Z,39.10
2019-04-29T00:30:29.511Z,46.65
2019-04-29T00:32:58.879Z,37.78
2019-04-29T00:35:28.243Z,37.73
2019-04-29T00:38:01.817Z,45.15
2019-04-29T00:40:44.989Z,39.67
2019-04-29T00:43:15.950Z,43.68
2019-04-29T00:45:45.407Z,37.85
2019-04-29T00:48:16.205Z,39.65
2019-04-29T00:50:45.717Z,39.73
2019-04-29T00:53:16.079Z,44.93
2019-04-29T00:55:45.383Z,37.42
2019-04-29T00:58:14.671Z,39.45
2019-04-29T01:00:44.050Z,27.17
2019-04-29T01:03:13.400Z,27.30
2019-04-29T01:05:44.011Z,36.90
2019-04-29T01:08:14.450Z,50.40
2019-04-29T01:10:43.761Z,24.35
2019-04-29T01:13:13.047Z,16.12
2019-04-29T01:15:42.384Z,18.60
2019-04-29T01:18:11.843Z,37.63
2019-04-29T01:20:41.215Z,28.25
2019-04-29T01:23:10.490Z,27.17
2019-04-29T01:25:40.962Z,47.00
2019-04-29T01:28:28.517Z,67.92
2019-04-29T01:31:02.072Z,65.75
2019-04-29T01:33:31.531Z,56.02
2019-04-29T01:36:08.511Z,59.58
2019-04-29T01:38:38.867Z,53.48
2019-04-29T01:41:12.757Z,47.10
2019-04-29T01:44:02.110Z,35.73
2019-04-29T01:46:31.414Z,49.42
2019-04-29T01:49:00.756Z,61.83
2019-04-29T01:51:30.086Z,59.63
2019-04-29T01:53:59.439Z,65.37
2019-04-29T01:56:28.920Z,66.67
2019-04-29T01:58:58.191Z,61.28
2019-04-29T02:01:27.507Z,58.33
2019-04-29T02:03:56.794Z,56.77
2019-04-29T02:06:26.118Z,56.02
2019-04-29T02:08:56.360Z,62.50
2019-04-29T02:11:25.820Z,55.00
2019-04-29T02:13:55.204Z,59.05
2019-04-29T02:16:24.517Z,42.50
2019-04-29T02:18:53.970Z,41.20
2019-04-29T02:21:23.273Z,24.32
2019-04-29T02:23:54.201Z,22.62
2019-04-29T02:26:23.512Z,37.38
2019-04-29T02:28:52.875Z,31.50
2019-04-29T02:31:36.534Z,40.10
2019-04-29T02:34:06.054Z,42.90
2019-04-29T02:36:35.670Z,39.83
2019-04-29T02:39:27.005Z,48.80
2019-04-29T02:42:00.648Z,44.53
2019-04-29T02:44:29.946Z,42.65
2019-04-29T02:46:59.288Z,36.93
2019-04-29T02:49:28.591Z,35.30
2019-04-29T02:51:57.891Z,44.42
2019-04-29T02:54:28.651Z,61.33
2019-04-29T02:57:14.575Z,64.80
2019-04-29T02:59:54.533Z,47.65
2019-04-29T03:02:28.528Z,55.33
2019-04-29T03:05:08.299Z,42.10
2019-04-29T03:07:37.561Z,57.15
2019-04-29T03:10:07.439Z,58.73
2019-04-29T03:12:36.790Z,65.72
2019-04-29T03:15:07.230Z,64.15
2019-04-29T03:17:36.870Z,58.75
2019-04-29T03:20:17.528Z,67.50
2019-04-29T03:22:51.437Z,57.08
2019-04-29T03:25:20.768Z,55.95
2019-04-29T03:27:51.699Z,59.60
2019-04-29T03:30:21.013Z,58.40
2019-04-29T03:32:50.280Z,53.83
2019-04-29T03:35:19.582Z,54.27
2019-04-29T03:37:48.854Z,54.45
2019-04-29T03:40:19.302Z,60.03
2019-04-29T03:42:49.711Z,53.13
2019-04-29T03:45:19.074Z,62.20
2019-04-29T03:47:48.393Z,50.58
2019-04-29T03:50:17.897Z,55.58
2019-04-29T03:52:47.438Z,53.35
2019-04-29T03:55:16.715Z,55.90
2019-04-29T03:57:46.018Z,56.08
2019-04-29T04:00:17.026Z,57.08
2019-04-29T04:02:47.966Z,56.70
2019-04-29T04:05:18.896Z,47.38
2019-04-29T04:07:54.112Z,52.03
2019-04-29T04:10:23.480Z,48.10
2019-04-29T04:12:52.882Z,53.08
2019-04-29T04:15:22.162Z,53.35
2019-04-29T04:17:53.113Z,57.62
2019-04-29T04:20:22.796Z,42.48
2019-04-29T04:22:53.613Z,43.95
2019-04-29T04:25:22.941Z,35.00
2019-04-29T04:27:53.863Z,34.83
2019-04-29T04:30:23.395Z,46.80
2019-04-29T04:32:52.666Z,47.55
2019-04-29T04:35:22.107Z,48.90
2019-04-29T04:37:51.408Z,52.20
2019-04-29T04:40:22.367Z,46.08
2019-04-29T04:42:51.673Z,42.83
2019-04-29T04:45:21.141Z,55.55
2019-04-29T04:47:50.444Z,48.68
2019-04-29T04:50:19.797Z,52.65
2019-04-29T04:52:49.163Z,56.65
2019-04-29T04:55:20.161Z,53.02
2019-04-29T04:57:49.479Z,59.42
2019-04-29T05:00:23.165Z,55.48
2019-04-29T05:02:52.468Z,72.50
2019-04-29T05:05:21.778Z,55.88
2019-04-29T05:07:51.083Z,45.63
2019-04-29T05:10:21.533Z,49.75
2019-04-29T05:12:50.826Z,51.23
2019-04-29T05:15:20.124Z,53.38
2019-04-29T05:17:52.875Z,56.15
2019-04-29T05:20:20.806Z,60.05
2019-04-29T05:23:01.887Z,44.50
2019-04-29T05:25:32.217Z,50.03
2019-04-29T05:28:01.734Z,58.60
2019-04-29T05:30:31.064Z,60.40
2019-04-29T05:33:00.641Z,53.52
2019-04-29T05:35:32.669Z,49.73
2019-04-29T05:38:19.816Z,52.48
2019-04-29T05:40:50.772Z,48.35
2019-04-29T05:43:21.815Z,47.15
2019-04-29T05:45:55.850Z,49.95
2019-04-29T05:48:27.721Z,50.78
2019-04-29T05:51:14.531Z,48.70
2019-04-29T05:53:47.293Z,47.95
2019-04-29T05:56:18.109Z,46.37
2019-04-29T05:58:47.486Z,44.95
2019-04-29T06:01:18.396Z,42.98
2019-04-29T06:03:47.784Z,42.08
2019-04-29T06:06:17.051Z,44.42
2019-04-29T06:08:46.370Z,41.05
2019-04-29T06:11:15.677Z,36.03
2019-04-29T06:13:44.977Z,38.20
2019-04-29T06:16:15.968Z,35.63
2019-04-29T06:18:45.325Z,41.48
2019-04-29T06:21:14.626Z,35.83
2019-04-29T06:23:44.789Z,33.90
2019-04-29T06:26:15.265Z,37.05
2019-04-29T06:28:45.965Z,33.25
2019-04-29T06:31:15.501Z,33.50
2019-04-29T06:33:44.812Z,30.02
2019-04-29T06:36:14.206Z,29.55
2019-04-29T06:38:43.675Z,31.50
2019-04-29T06:41:13.036Z,26.42
2019-04-29T06:43:42.360Z,28.07
2019-04-29T06:46:11.702Z,27.25
2019-04-29T06:48:41.075Z,25.88
2019-04-29T06:51:10.503Z,24.23
2019-04-29T06:53:39.854Z,22.25
2019-04-29T06:56:09.414Z,24.47
2019-04-29T06:58:38.971Z,24.35
2019-04-29T07:01:09.239Z,25.97
2019-04-29T07:03:38.568Z,25.15
2019-04-29T07:06:07.873Z,26.82
2019-04-29T07:08:37.233Z,27.40
2019-04-29T07:11:06.559Z,28.23
2019-04-29T07:13:36.105Z,28.00
2019-04-29T07:16:05.454Z,27.02
2019-04-29T07:18:34.830Z,27.67
2019-04-29T07:21:07.493Z,27.17
2019-04-29T07:23:35.172Z,26.15
2019-04-29T07:26:04.445Z,28.27
2019-04-29T07:28:33.765Z,26.77
2019-04-29T07:31:03.370Z,27.52
2019-04-29T07:33:34.320Z,28.83
2019-04-29T07:36:10.928Z,30.50
2019-04-29T07:38:41.452Z,30.52
2019-04-29T07:41:05.683Z,28.85
2019-04-29T07:43:41.230Z,30.05
2019-04-29T07:46:09.372Z,28.92
2019-04-29T07:48:41.989Z,28.92
2019-04-29T07:51:09.871Z,29.55
2019-04-29T07:53:45.073Z,27.48
2019-04-29T07:56:10.247Z,24.27
2019-04-29T07:58:39.763Z,23.70
2019-04-29T08:01:09.149Z,24.47
2019-04-29T08:03:38.458Z,25.48
2019-04-29T08:06:07.826Z,25.88
2019-04-29T08:08:37.293Z,22.30
2019-04-29T08:11:06.949Z,23.02
2019-04-29T08:13:37.261Z,21.80
2019-04-29T08:16:06.662Z,22.25
2019-04-29T08:18:35.976Z,23.10
2019-04-29T08:21:05.379Z,23.35
2019-04-29T08:23:41.133Z,24.02
2019-04-29T08:26:06.067Z,22.65
2019-04-29T08:28:35.364Z,24.00
2019-04-29T08:31:04.734Z,22.82
2019-04-29T08:33:34.135Z,22.62
2019-04-29T08:36:03.613Z,24.43
2019-04-29T08:38:32.977Z,23.45
2019-04-29T08:41:02.305Z,22.02
2019-04-29T08:43:36.272Z,20.88
2019-04-29T08:46:19.517Z,19.82
2019-04-29T08:48:48.880Z,19.85
2019-04-29T08:51:18.246Z,21.80
2019-04-29T08:53:47.588Z,20.48
2019-04-29T08:56:16.897Z,20.72
2019-04-29T08:58:49.242Z,19.65
2019-04-29T09:01:17.282Z,19.85
2019-04-29T09:03:46.605Z,20.27
2019-04-29T09:06:15.930Z,20.40
2019-04-29T09:08:54.366Z,19.25
2019-04-29T09:11:17.820Z,19.07
2019-04-29T09:13:47.572Z,19.25
2019-04-29T09:16:16.887Z,17.85
2019-04-29T09:18:46.177Z,19.87
2019-04-29T09:21:15.476Z,19.95
2019-04-29T09:23:44.844Z,20.23
2019-04-29T09:26:28.123Z,20.23
2019-04-29T09:28:59.690Z,20.25
2019-04-29T09:31:28.411Z,19.87
2019-04-29T09:34:06.601Z,19.40
2019-04-29T09:36:29.090Z,18.60
2019-04-29T09:38:58.496Z,17.52
2019-04-29T09:41:35.109Z,17.80
2019-04-29T09:44:05.587Z,18.32
2019-04-29T09:46:36.413Z,17.27
2019-04-29T09:49:05.936Z,15.90
2019-04-29T09:51:35.291Z,14.13
2019-04-29T09:54:04.740Z,12.88
2019-04-29T09:56:34.746Z,13.40
2019-04-29T09:59:22.852Z,12.90
2019-04-29T10:01:55.133Z,13.75
2019-04-29T10:04:27.186Z,14.70
2019-04-29T10:06:58.180Z,14.60
2019-04-29T10:09:27.593Z,15.90
2019-04-29T10:11:57.977Z,16.17
2019-04-29T10:14:28.402Z,15.68
2019-04-29T10:17:02.420Z,14.50
2019-04-29T10:19:50.187Z,13.50
2019-04-29T10:22:19.679Z,13.15
2019-04-29T10:24:48.988Z,15.40
2019-04-29T10:27:19.104Z,14.43
2019-04-29T10:29:50.739Z,13.70
2019-04-29T10:32:23.147Z,13.40
2019-04-29T10:34:52.615Z,14.15
2019-04-29T10:37:23.803Z,13.88
2019-04-29T10:40:11.067Z,13.93
2019-04-29T10:42:35.341Z,14.87
2019-04-29T10:45:08.409Z,14.73
2019-04-29T10:47:39.588Z,15.05
2019-04-29T10:50:15.509Z,16.87
2019-04-29T10:52:45.558Z,15.85
2019-04-29T10:55:15.961Z,14.40
2019-04-29T10:57:49.764Z,13.53
2019-04-29T11:00:24.250Z,13.58
2019-04-29T11:02:53.914Z,13.88
2019-04-29T11:05:28.104Z,13.43
2019-04-29T11:08:02.514Z,12.37
2019-04-29T11:10:32.477Z,13.50
2019-04-29T11:13:03.658Z,13.28
2019-04-29T11:15:34.691Z,12.87
2019-04-29T11:18:04.656Z,12.23
2019-04-29T11:20:35.523Z,13.53
2019-04-29T11:23:18.245Z,12.93
2019-04-29T11:25:51.234Z,11.80
2019-04-29T11:28:20.757Z,13.48
2019-04-29T11:30:50.287Z,12.95
2019-04-29T11:33:31.373Z,14.40
2019-04-29T11:36:10.842Z,14.07
2019-04-29T11:38:40.747Z,13.53
2019-04-29T11:41:17.921Z,16.12
2019-04-29T11:43:46.731Z,15.83
2019-04-29T11:46:15.714Z,15.23
2019-04-29T11:48:45.293Z,14.95
2019-04-29T11:51:22.086Z,14.28
2019-04-29T11:53:51.516Z,17.67
2019-04-29T11:56:20.814Z,17.37
2019-04-29T11:59:00.457Z,16.73
2019-04-29T12:01:38.817Z,15.80
2019-04-29T12:04:18.832Z,14.78
2019-04-29T12:06:51.165Z,13.40
2019-04-29T12:09:19.722Z,14.37
2019-04-29T12:11:49.027Z,13.95
2019-04-29T12:14:37.973Z,13.55
2019-04-29T12:17:25.622Z,14.35
2019-04-29T12:19:59.657Z,14.80
2019-04-29T12:22:31.003Z,14.43
2019-04-29T12:25:00.616Z,13.85
2019-04-29T12:27:30.006Z,14.33
2019-04-29T12:29:59.825Z,13.30
2019-04-29T12:32:33.754Z,12.82
2019-04-29T12:35:12.296Z,12.18
2019-04-29T12:37:55.251Z,13.35
2019-04-29T12:40:45.531Z,13.60
2019-04-29T12:43:21.094Z,13.20
2019-04-29T12:46:10.138Z,13.08
2019-04-29T12:48:38.939Z,13.58
2019-04-29T12:51:08.553Z,12.25
2019-04-29T12:53:37.858Z,11.85
2019-04-29T12:56:11.205Z,11.05
2019-04-29T12:58:38.159Z,11.60
2019-04-29T13:01:12.146Z,11.30
2019-04-29T13:03:43.298Z,10.70
2019-04-29T13:06:38.720Z,11.08
2019-04-29T13:09:01.528Z,12.68
2019-04-29T13:11:45.354Z,12.78
2019-04-29T13:14:02.713Z,12.28
2019-04-29T13:16:33.703Z,11.60
2019-04-29T13:19:25.087Z,10.95
2019-04-29T13:21:52.541Z,10.75
2019-04-29T13:24:24.805Z,10.50
2019-04-29T13:26:53.004Z,10.20
2019-04-29T13:29:27.412Z,11.78
2019-04-29T13:31:55.027Z,11.20
2019-04-29T13:34:31.149Z,11.50
2019-04-29T13:37:06.636Z,10.93
2019-04-29T13:39:39.263Z,10.60
2019-04-29T13:42:03.023Z,10.50
2019-04-29T13:44:31.974Z,10.00
2019-04-29T13:47:28.389Z,9.93
2019-04-29T13:50:17.191Z,9.98
2019-04-29T13:52:31.760Z,9.50
2019-04-29T13:55:16.685Z,10.08
2019-04-29T13:57:32.519Z,9.93
2019-04-29T14:00:14.246Z,9.35
2019-04-29T14:02:59.283Z,9.33
2019-04-29T14:05:32.449Z,10.00
2019-04-29T14:08:01.582Z,11.25
2019-04-29T14:10:30.908Z,11.43
2019-04-29T14:13:09.659Z,11.15
2019-04-29T14:15:33.932Z,11.55
2019-04-29T14:18:02.242Z,11.88
2019-04-29T14:20:31.540Z,10.85
2019-04-29T14:23:00.905Z,11.93
2019-04-29T14:25:30.211Z,11.50
2019-04-29T14:27:59.488Z,12.18
2019-04-29T14:30:38.438Z,11.73
2019-04-29T14:33:02.031Z,10.45
2019-04-29T14:35:36.199Z,11.18
2019-04-29T14:40:38.929Z,12.23
2019-04-29T14:43:30.979Z,11.20
2019-04-29T14:46:07.707Z,11.28
2019-04-29T14:48:42.583Z,12.00
2019-04-29T14:53:38.723Z,12.53
2019-04-29T14:56:08.026Z,13.50
2019-04-29T14:58:37.368Z,13.30
2019-04-29T15:01:12.176Z,13.48
2019-04-29T15:03:58.652Z,11.95
2019-04-29T15:06:29.576Z,11.30
2019-04-29T15:08:59.203Z,12.15
2019-04-29T15:11:31.830Z,12.70
2019-04-29T15:14:05.786Z,12.15
2019-04-29T15:16:37.272Z,12.20
2019-04-29T15:19:23.815Z,12.03
2019-04-29T15:21:54.841Z,11.97
2019-04-29T15:24:27.453Z,11.53
2019-04-29T15:26:55.373Z,11.53
2019-04-29T15:29:24.734Z,12.70
2019-04-29T15:31:54.090Z,12.35
2019-04-29T15:34:24.429Z,12.55
2019-04-29T15:36:53.768Z,11.63
2019-04-29T15:39:25.325Z,10.78
2019-04-29T15:41:54.908Z,10.03
2019-04-29T15:44:24.620Z,10.82
2019-04-29T15:46:53.945Z,11.65
2019-04-29T15:49:24.688Z,11.73
2019-04-29T15:51:54.378Z,10.93
2019-04-29T15:54:26.016Z,10.90
2019-04-29T15:56:55.143Z,10.15
2019-04-29T15:59:24.419Z,10.20
2019-04-29T16:01:53.767Z,9.78
2019-04-29T16:04:27.823Z,9.68
2019-04-29T16:06:57.364Z,9.15
2019-04-29T16:09:41.973Z,9.90
2019-04-29T16:14:31.176Z,9.85
2019-04-29T16:17:01.544Z,9.98
2019-04-29T16:19:30.993Z,10.20
2019-04-29T16:22:00.302Z,10.45
2019-04-29T16:24:37.755Z,9.93
2019-04-29T16:27:01.104Z,10.08
2019-04-29T16:29:31.624Z,9.55
2019-04-29T16:32:03.277Z,10.08
2019-04-29T16:34:37.561Z,9.90
2019-04-29T16:37:03.185Z,9.33
2019-04-29T16:39:33.077Z,8.95
2019-04-29T16:42:07.155Z,9.40
2019-04-29T16:44:36.674Z,9.20
2019-04-29T16:47:13.284Z,8.65
2019-04-29T16:49:39.651Z,9.23
2019-04-29T16:52:09.026Z,9.75
2019-04-29T16:54:38.302Z,10.05
2019-04-29T16:57:07.799Z,10.05
2019-04-29T16:59:37.154Z,10.53
2019-04-29T17:02:06.599Z,10.55
2019-04-29T17:04:35.892Z,10.25
2019-04-29T17:07:14.009Z,9.35
2019-04-29T17:09:40.878Z,9.18
2019-04-29T17:12:10.178Z,8.93
2019-04-29T17:15:02.353Z,10.32
2019-04-29T17:17:15.670Z,10.30
2019-04-29T17:19:44.981Z,10.38
2019-04-29T17:22:25.358Z,10.30
2019-04-29T17:24:45.692Z,11.00
2019-04-29T17:27:42.093Z,11.10
2019-04-29T17:30:26.044Z,11.15
2019-04-29T17:33:26.477Z,12.30
2019-04-29T17:35:47.781Z,11.45
2019-04-29T17:38:17.342Z,12.33
2019-04-29T17:40:51.105Z,13.18
2019-04-29T17:43:19.386Z,12.73
2019-04-29T17:45:50.487Z,12.55
2019-04-29T17:48:22.310Z,12.55
2019-04-29T17:50:56.156Z,13.47
2019-04-29T17:53:30.085Z,12.73
2019-04-29T17:56:05.333Z,12.80
2019-04-29T17:58:36.431Z,12.58
2019-04-29T18:01:10.445Z,11.68
2019-04-29T18:03:45.940Z,11.35
2019-04-29T18:06:24.447Z,10.08
2019-04-29T18:08:52.492Z,11.95
2019-04-29T18:11:21.877Z,12.30
2019-04-29T18:13:52.534Z,12.23
2019-04-29T18:16:28.010Z,12.55
2019-04-29T18:19:08.931Z,12.68
2019-04-29T18:21:43.326Z,12.13
2019-04-29T18:24:18.040Z,13.25
2019-04-29T18:26:49.941Z,12.28
2019-04-29T18:29:20.419Z,13.88
2019-04-29T18:31:49.802Z,14.58
2019-04-29T18:34:19.184Z,14.03
2019-04-29T18:36:50.026Z,13.55
2019-04-29T18:39:29.975Z,13.90
2019-04-29T18:41:58.697Z,14.73
2019-04-29T18:44:29.247Z,15.48
2019-04-29T18:46:58.704Z,14.93
2019-04-29T18:49:28.115Z,15.43
2019-04-29T18:52:02.299Z,15.78
2019-04-29T18:54:30.055Z,15.23
2019-04-29T18:56:59.475Z,15.23
2019-04-29T18:59:33.638Z,14.75
2019-04-29T19:02:07.900Z,15.08
2019-04-29T19:04:38.885Z,15.32
2019-04-29T19:07:08.282Z,15.08
2019-04-29T19:09:39.632Z,15.23
2019-04-29T19:12:09.049Z,15.93
2019-04-29T19:14:38.352Z,21.23
2019-04-29T19:17:08.021Z,18.42
2019-04-29T19:19:39.381Z,19.27
2019-04-29T19:22:09.854Z,17.45
2019-04-29T19:24:39.318Z,18.07
2019-04-29T19:27:10.048Z,18.55
2019-04-29T19:29:43.355Z,17.95
2019-04-29T19:32:12.053Z,18.15
2019-04-29T19:34:43.476Z,18.10
2019-04-29T19:37:12.515Z,17.60
2019-04-29T19:39:44.838Z,17.67
2019-04-29T19:42:15.649Z,18.37
2019-04-29T19:44:46.106Z,18.35
2019-04-29T19:47:16.698Z,19.37
2019-04-29T19:49:46.248Z,18.80
2019-04-29T19:52:19.067Z,20.25
2019-04-29T19:54:47.373Z,19.37
2019-04-29T19:57:16.674Z,20.05
2019-04-29T19:59:51.378Z,20.02
2019-04-29T20:02:17.826Z,19.07
2019-04-29T20:04:58.971Z,19.48
2019-04-29T20:07:27.357Z,19.12
2019-04-29T20:10:03.766Z,19.92
2019-04-29T20:12:28.271Z,20.85
2019-04-29T20:14:59.786Z,20.37
2019-04-29T20:17:49.252Z,19.57
2019-04-29T20:20:19.854Z,18.92
2019-04-29T20:22:51.230Z,19.50
2019-04-29T20:25:29.286Z,19.17
2019-04-29T20:28:05.118Z,18.02
2019-04-29T20:30:22.489Z,17.27
2019-04-29T20:32:52.153Z,19.15
2019-04-29T20:35:21.887Z,18.17
2019-04-29T20:37:55.694Z,19.27
2019-04-29T20:40:22.632Z,20.02
2019-04-29T20:42:52.088Z,19.30
2019-04-29T20:45:25.466Z,20.27
2019-04-29T20:47:53.516Z,19.73
2019-04-29T20:50:25.154Z,20.68
2019-04-29T20:53:05.903Z,20.05
2019-04-29T20:55:36.481Z,20.55
2019-04-29T20:58:06.843Z,19.60
2019-04-29T21:00:38.405Z,20.00
2019-04-29T21:03:11.224Z,19.50
2019-04-29T21:05:48.306Z,20.25
2019-04-29T21:08:16.178Z,19.17
2019-04-29T21:10:42.914Z,19.65
2019-04-29T21:13:25.651Z,19.50
2019-04-29T21:15:59.305Z,19.48
2019-04-29T21:18:27.384Z,18.73
2019-04-29T21:20:59.557Z,19.80
2019-04-29T21:23:35.010Z,18.98
2019-04-29T21:26:00.495Z,18.07
2019-04-29T21:28:31.538Z,19.45
2019-04-29T21:31:01.696Z,20.02
2019-04-29T21:33:31.247Z,20.25
2019-04-29T21:36:11.301Z,19.05
2019-04-29T21:38:48.649Z,19.00
2019-04-29T21:41:31.874Z,19.98
2019-04-29T21:44:02.549Z,19.85
2019-04-29T21:46:31.917Z,19.87
2019-04-29T21:49:05.038Z,20.00
2019-04-29T21:51:33.268Z,21.12
2019-04-29T21:54:02.590Z,21.48
2019-04-29T21:56:31.870Z,20.52
2019-04-29T21:59:02.745Z,19.95
2019-04-29T22:01:34.254Z,19.05
2019-04-29T22:04:04.272Z,20.70
2019-04-29T22:06:33.588Z,19.30
2019-04-29T22:09:04.986Z,20.23
2019-04-29T22:11:43.137Z,20.08
2019-04-29T22:14:09.863Z,19.82
2019-04-29T22:16:38.873Z,19.15
2019-04-29T22:19:08.189Z,19.10
2019-04-29T22:21:37.541Z,17.35
2019-04-29T22:24:07.018Z,17.05
2019-04-29T22:26:36.320Z,17.45
2019-04-29T22:29:05.624Z,17.42
2019-04-29T22:31:38.192Z,17.67
2019-04-29T22:34:09.872Z,17.07
2019-04-29T22:36:37.036Z,17.20
2019-04-29T22:39:07.781Z,17.15
2019-04-29T22:41:55.553Z,16.90
2019-04-29T22:44:27.068Z,16.40
2019-04-29T22:46:56.336Z,16.60
2019-04-29T22:49:29.172Z,16.40
2019-04-29T22:51:57.255Z,16.17
2019-04-29T22:54:26.683Z,16.07
2019-04-29T22:56:56.751Z,15.45
2019-04-29T22:59:27.482Z,16.35
2019-04-29T23:01:59.546Z,15.20
2019-04-29T23:04:28.851Z,15.78
2019-04-29T23:06:58.121Z,15.93
2019-04-29T23:09:27.469Z,15.65
2019-04-29T23:11:56.773Z,16.70
2019-04-29T23:14:26.171Z,15.55
2019-04-29T23:16:55.627Z,15.00
2019-04-29T23:19:25.912Z,15.85
2019-04-29T23:22:10.594Z,14.75
2019-04-29T23:24:41.641Z,14.40
2019-04-29T23:27:11.541Z,14.80
2019-04-29T23:29:43.176Z,14.47
2019-04-29T23:32:13.081Z,13.72
2019-04-29T23:34:42.456Z,13.55
2019-04-29T23:37:11.814Z,13.13
2019-04-29T23:39:41.592Z,13.78
2019-04-29T23:42:13.627Z,13.25
2019-04-29T23:44:43.854Z,14.07
2019-04-29T23:47:13.050Z,13.85
2019-04-29T23:49:44.499Z,13.18
2019-04-29T23:52:13.574Z,12.85
2019-04-29T23:54:46.951Z,12.63
2019-04-29T23:57:22.919Z,13.05
